Station: Smithton  

  Atmospheric Gas Attenuation - ITU Rec 676-11   ----------------- dB/100km -----------------
Date Time Temp RH % AH g/m3 Dew Point Wind Direction Speed kph Gust kph Barometer mB Rainfall Since 9am 24GHz 47GHz 76GHz 122GHz 134GHz 241GHz
04/05 19:20 14.3 85 10.44 11.8 11 11 1006.1 5.2 23.5 28.5 46.8 123.2 122.0 421.2
04/05 19:10 14.7 83 10.45 11.8 26 28 1006.1 5.2 23.5 28.4 46.6 122.7 121.5 419.6
04/05 19:00 15.9 79 10.7 12.3 22 35 1006 5.2 24.0 28.4 46.9 123.6 123.0 425.0
04/05 18:50 15.9 81 10.97 12.6 22 24 1006 5.2 24.6 28.9 48.1 126.6 126.8 438.1
04/05 18:40 15.8 80 10.77 12.4 19 24 1006.1 5.2 24.1 28.6 47.3 124.5 124.2 429.0
04/05 18:30 15.8 80 10.77 12.4 20 26 1006.1 5.2 24.1 28.6 47.3 124.5 124.2 429.0
04/05 18:20 15.6 81 10.77 12.4 22 24 1006.1 5.2 24.2 28.7 47.4 124.8 124.5 430.1
04/05 18:10 15.5 80 10.57 12.1 22 28 1006.1 5.2 23.7 28.4 46.6 122.8 121.9 421.0
04/05 18:00 15.3 81 10.58 12.1 20 30 1006 5.2 23.8 28.4 46.8 123.2 122.4 422.5
04/05 17:50 15.3 81 10.58 12.1 24 28 1006.1 5.2 23.8 28.4 46.8 123.2 122.4 422.6
04/05 17:40 15 86 11.03 12.7 17 24 1006.1 5.2 24.7 29.3 48.9 128.8 129.1 446.2
04/05 17:30 14.8 87 11.02 12.7 17 22 1006.2 5.2 24.7 29.4 49.0 129.0 129.3 446.9
04/05 17:20 14.9 88 11.22 12.9 19 24 1006.3 5.2 25.2 29.7 49.8 131.2 132.0 456.2
04/05 17:10 15 88 11.28 13 24 30 1006.2 5.2 25.3 29.7 50.0 131.7 132.7 458.6
04/05 17:00 14.7 90 11.33 13.1 19 24 1006.2 5.2 25.4 29.9 50.4 132.8 133.9 462.8
04/05 16:50 14.3 91 11.18 12.9 15 17 1006.1 5.2 25.1 29.8 50.0 131.7 132.5 457.7
04/05 16:40 14.1 91 11.04 12.7 15 19 1006.2 5.2 24.8 29.6 49.5 130.4 130.8 452.0
04/05 16:30 14.1 90 10.92 12.5 19 28 1006.2 5.2 24.6 29.4 49.0 129.0 129.1 446.0
04/05 16:20 14.1 89 10.8 12.3 13 17 1006.2 4.6 24.3 29.2 48.5 127.6 127.4 440.1
04/05 16:10 14.5 87 10.82 12.4 30 35 1006.3 1.8 24.3 29.1 48.3 127.2 127.0 438.8
04/05 16:00 14.8 87 11.02 12.7 22 30 1006.2 0.6 24.7 29.4 49.0 129.0 129.3 446.9
04/05 15:50 14.5 88 10.95 12.5 22 24 1006.3 0.6 24.6 29.3 48.9 128.7 128.9 445.2
04/05 15:40 14.7 84 10.58 12 28 35 1006.3 0.6 23.8 28.6 47.1 124.2 123.3 425.9
04/05 15:30 15.2 80 10.38 11.8 24 32 1006.3 0.2 23.3 28.1 46.0 121.1 119.8 413.6
04/05 15:20 15.5 80 10.57 12.1 22 26 1006.4 0.2 23.7 28.4 46.6 122.8 121.9 421.1
04/05 15:10 15.4 79 10.38 11.8 26 32 1006.5 0.2 23.3 28.1 45.9 120.8 119.5 412.6
04/05 15:00 15.5 79 10.44 11.9 24 35 1006.5 0.2 23.5 28.2 46.1 121.4 120.2 414.9
04/05 14:50 15.5 82 10.84 12.4 22 28 1006.6 0.2 24.3 28.8 47.8 125.9 125.7 434.2
04/05 14:40 15.2 83 10.77 12.3 20 24 1006.5 0.2 24.2 28.8 47.7 125.5 125.2 432.5
04/05 14:30 15.4 78 10.25 11.6 32 41 1006.5 0.2 23.0 27.9 45.4 119.4 117.7 406.3
04/05 14:20 15.5 79 10.44 11.9 32 35 1006.5 0.2 23.5 28.2 46.1 121.4 120.2 414.9
04/05 14:10 15.3 80 10.45 11.9 28 33 1006.5 0.2 23.5 28.2 46.3 121.8 120.6 416.4
04/05 14:00 15.4 78 10.25 11.6 26 35 1006.7 0.2 23.0 27.9 45.4 119.4 117.7 406.4
04/05 13:50 16.1 75 10.28 11.7 32 39 1006.7 0.2 23.1 27.7 45.1 118.7 117.1 404.2
04/05 13:40 16.2 75 10.34 11.8 32 41 1006.7 0.2 23.2 27.8 45.3 119.2 117.7 406.5
04/05 13:30 15.7 77 10.3 11.7 28 41 1006.9 0.2 23.1 27.9 45.4 119.5 118.0 407.3
04/05 13:20 15.9 77 10.43 11.9 26 30 1007 0.2 23.4 28.0 45.8 120.7 119.4 412.5
04/05 13:10 16.3 80 11.1 12.8 26 32 1007.1 0.2 24.8 29.0 48.4 127.5 128.0 442.5
04/05 13:00 16.2 83 11.45 13.3 28 37 1007.2 0.2 25.6 29.7 50.0 131.7 133.1 460.1
04/05 12:50 15.4 83 10.9 12.5 26 30 1007.3 0.2 24.4 29.0 48.1 126.8 126.8 437.9
04/05 12:40 16.2 74 10.2 11.6 32 35 1007.4 0 22.9 27.6 44.7 117.7 115.9 400.1
04/05 12:30 16.8 75 10.72 12.3 32 44 1007.6 0 24.0 28.2 46.5 122.6 122.0 421.6
04/05 12:20 17.6 71 10.65 12.3 35 39 1007.7 0 23.8 27.9 45.8 120.6 119.8 414.1
04/05 12:10 17.8 74 11.23 13.1 24 28 1007.8 0 25.0 28.8 48.1 126.6 127.4 440.4
04/05 12:00 17.4 74 10.97 12.7 32 41 1008 0 24.5 28.5 47.2 124.4 124.5 430.4
04/05 11:50 17.4 73 10.82 12.5 32 37 1008.1 0 24.2 28.2 46.6 122.8 122.5 423.3
04/05 11:40 17.2 71 10.4 11.9 35 44 1008.3 0 23.3 27.6 45.0 118.5 117.2 404.6
04/05 11:30 16.9 74 10.64 12.2 24 35 1008.3 0 23.8 28.1 46.2 121.6 120.9 417.5
04/05 11:20 17 75 10.85 12.5 20 30 1008.3 0 24.2 28.4 47.0 123.8 123.6 426.9
04/05 11:10 16.8 73 10.44 11.9 20 24 1008.4 0 23.4 27.8 45.4 119.6 118.3 408.6
04/05 11:00 16.5 74 10.39 11.9 28 43 1008.4 0 23.3 27.8 45.4 119.5 118.1 407.8
04/05 10:50 16.4 74 10.33 11.8 30 33 1008.3 0 23.2 27.8 45.2 119.0 117.4 405.5
04/05 10:40 16.6 74 10.45 11.9 24 30 1008.3 0 23.4 27.9 45.6 120.0 118.8 410.1
04/05 10:30 16.7 73 10.37 11.8 28 37 1008.3 0 23.2 27.7 45.2 118.9 117.5 405.8
04/05 10:20 17.2 73 10.69 12.3 22 30 1008.3 0 23.9 28.1 46.2 121.7 121.1 418.3
04/05 10:10 17.2 76 11.13 12.9 24 30 1008.4 0 24.8 28.8 48.0 126.6 127.1 439.2
04/05 10:00 16.8 77 11.01 12.7 28 37 1008.4 0 24.6 28.8 47.8 125.9 126.1 435.7
04/05 09:50 16.8 76 10.87 12.5 28 32 1008.4 0 24.3 28.5 47.2 124.3 124.2 429.0
04/05 09:40 16.7 75 10.66 12.3 26 32 1008.6 0 23.8 28.2 46.4 122.2 121.5 419.6
04/05 09:30 16.6 77 10.88 12.6 24 33 1008.6 0 24.3 28.6 47.4 124.8 124.6 430.7
04/05 09:20 16.3 76 10.54 12.1 32 39 1008.7 0 23.6 28.1 46.1 121.5 120.5 416.1
04/05 09:10 16 78 10.63 12.2 20 26 1008.8 0 23.8 28.4 46.7 123.0 122.2 422.1
04/05 09:00 16.1 78 10.69 12.3 24 33 1008.8 0 23.9 28.5 46.9 123.5 122.9 424.4
04/05 08:50 15.8 79 10.63 12.2 20 30 1008.8 22.4 23.8 28.5 46.8 123.3 122.5 423.2
04/05 08:40 15.6 80 10.64 12.2 22 26 1008.7 22.4 23.9 28.5 47.0 123.7 123.0 424.7
04/05 08:30 15.4 81 10.64 12.2 20 28 1008.6 22.4 23.9 28.6 47.1 124.0 123.3 425.8
04/05 08:20 15.2 82 10.64 12.1 22 28 1008.5 22.4 23.9 28.7 47.2 124.3 123.6 426.8
04/05 08:10 14.8 83 10.51 11.9 19 20 1008.6 22.4 23.6 28.6 46.9 123.5 122.4 422.7
04/05 08:00 14.7 85 10.7 12.2 19 26 1008.6 22.4 24.1 28.9 47.8 125.8 125.3 432.6
04/05 07:50 14.2 86 10.5 11.9 15 17 1008.7 22.4 23.7 28.8 47.2 124.4 123.3 425.6
04/05 07:40 13.9 87 10.43 11.8 13 19 1008.6 22.4 23.5 28.7 47.1 124.0 122.8 423.8
04/05 07:30 13.9 88 10.55 11.9 19 26 1008.6 22.4 23.8 28.9 47.6 125.4 124.5 429.7
04/05 07:20 13.8 90 10.72 12.2 19 22 1008.5 22.4 24.1 29.3 48.4 127.5 127.0 438.6
04/05 07:10 13.5 92 10.76 12.2 17 19 1008.5 22.4 24.3 29.4 48.8 128.5 128.1 442.3
04/05 07:00 13.5 93 10.88 12.4 17 20 1008.5 22.4 24.5 29.7 49.3 129.9 129.8 448.3
04/05 06:50 13.6 95 11.18 12.8 17 20 1008.4 22.4 25.2 30.1 50.5 133.2 133.9 462.7
04/05 06:40 13.3 97 11.21 12.8 15 20 1008.4 22.4 25.2 30.3 50.9 134.1 134.9 466.1
04/05 06:30 12.5 98 10.78 12.2 11 19 1008.5 22.4 24.4 29.8 49.5 130.4 130.1 449.1
04/05 06:20 10.5 97 9.41 10 7 9 1008.6 22.4 21.5 28.1 44.7 117.6 113.6 391.4
04/05 06:10 10 97 9.12 9.5 7 9 1008.6 22.4 20.9 27.7 43.8 115.1 110.3 379.5
04/05 06:00 9.1 96 8.52 8.5 6 9 1008.7 22.4 19.7 27.0 41.7 109.5 103.1 354.3
04/05 05:50 9.7 96 8.85 9.1 7 7 1008.6 22.4 20.3 27.4 42.8 112.4 106.9 367.7
04/05 05:40 10.3 96 9.2 9.7 6 7 1008.6 22.4 21.1 27.8 43.9 115.5 111.0 382.0
04/05 05:30 10.7 97 9.53 10.2 7 11 1008.6 22.4 21.8 28.2 45.1 118.7 115.0 396.3
04/05 05:20 10.6 97 9.47 10.1 7 9 1008.6 22.4 21.6 28.2 44.9 118.2 114.3 393.9
04/05 05:10 10.6 97 9.47 10.1 9 13 1008.7 22.4 21.6 28.2 44.9 118.2 114.4 393.9
04/05 05:00 9.6 96 8.8 9 7 11 1008.7 22.4 20.2 27.3 42.6 112.0 106.3 365.7
04/05 04:50 9.5 96 8.74 8.9 7 7 1008.7 22.4 20.1 27.2 42.4 111.5 105.6 363.2
04/05 04:40 10.3 97 9.29 9.8 7 7 1008.6 22.4 21.3 27.9 44.3 116.6 112.2 386.5
04/05 04:30 10.5 97 9.41 10 9 11 1008.6 22.4 21.5 28.1 44.7 117.6 113.6 391.4
04/05 04:20 10.1 97 9.17 9.6 11 13 1008.7 22.4 21.0 27.8 43.9 115.5 110.8 381.5
04/05 04:10 9.2 97 8.66 8.7 7 7 1008.8 22.4 20.0 27.2 42.2 111.0 104.9 360.7
04/05 04:00 8.9 97 8.5 8.5 6 11 1008.7 22.4 19.6 27.0 41.7 109.6 103.1 354.2
04/05 03:50 8.6 97 8.34 8.2 0 0 1008.9 22.4 19.3 26.8 41.2 108.2 101.2 347.8
04/05 03:40 8.7 96 8.31 8.1 6 7 1009 22.4 19.2 26.8 41.0 107.7 100.7 345.9
04/05 03:30 8.7 95 8.22 7.9 7 9 1009 22.4 19.0 26.6 40.6 106.7 99.4 341.5
04/05 03:20 10 96 9.02 9.4 7 9 1009.1 22.4 20.7 27.6 43.4 114.0 108.9 374.7
04/05 03:10 10.2 97 9.23 9.7 9 11 1009.1 22.4 21.1 27.9 44.1 116.1 111.6 384.1
04/05 03:00 10 96 9.02 9.4 7 9 1009.2 22.4 20.7 27.6 43.4 114.0 108.9 374.8
04/05 02:50 10.6 96 9.37 10 7 9 1009.3 22.4 21.4 28.0 44.5 117.1 113.0 389.1

Last Refresh: 04-May-2026 18:46:57

Bureau of Meteorology